createdAt,value
2023-04-22T00:01:16.680Z,12.92
2023-04-22T00:04:02.625Z,12.79
2023-04-22T00:06:48.076Z,12.62
2023-04-22T00:09:33.726Z,12.57
2023-04-22T00:12:18.829Z,12.65
2023-04-22T00:15:05.171Z,12.71
2023-04-22T00:17:50.750Z,12.62
2023-04-22T00:20:35.737Z,12.48
2023-04-22T00:23:20.641Z,12.46
2023-04-22T00:26:06.055Z,12.50
2023-04-22T00:28:51.338Z,12.50
2023-04-22T00:31:36.385Z,12.52
2023-04-22T00:34:21.563Z,12.37
2023-04-22T00:37:06.520Z,12.03
2023-04-22T00:39:51.898Z,11.90
2023-04-22T00:42:37.650Z,11.87
2023-04-22T00:45:23.002Z,11.91
2023-04-22T00:48:08.370Z,11.83
2023-04-22T00:50:53.742Z,11.62
2023-04-22T00:53:38.718Z,11.59
2023-04-22T00:56:26.330Z,11.66
2023-04-22T00:59:12.531Z,11.74
2023-04-22T01:01:57.967Z,11.47
2023-04-22T01:04:43.429Z,11.36
2023-04-22T01:07:28.585Z,11.40
2023-04-22T01:10:13.720Z,11.46
2023-04-22T01:12:58.687Z,11.27
2023-04-22T01:15:44.181Z,11.10
2023-04-22T01:18:29.748Z,11.05
2023-04-22T01:21:14.754Z,10.93
2023-04-22T01:24:01.563Z,10.96
2023-04-22T01:26:48.216Z,10.93
2023-04-22T01:29:33.817Z,10.82
2023-04-22T01:32:19.057Z,10.69
2023-04-22T01:35:04.432Z,10.64
2023-04-22T01:37:49.398Z,10.58
2023-04-22T01:40:34.723Z,10.63
2023-04-22T01:43:20.166Z,10.64
2023-04-22T01:46:06.405Z,10.65
2023-04-22T01:48:51.725Z,10.69
2023-04-22T01:51:36.752Z,10.37
2023-04-22T01:54:21.861Z,10.37
2023-04-22T01:57:12.028Z,10.32
2023-04-22T01:59:57.248Z,10.37
2023-04-22T02:02:42.666Z,10.29
2023-04-22T02:05:27.921Z,10.39
2023-04-22T02:08:12.809Z,10.53
2023-04-22T02:10:57.657Z,10.66
2023-04-22T02:13:42.650Z,10.43
2023-04-22T02:16:28.029Z,10.51
2023-04-22T02:19:13.485Z,10.59
2023-04-22T02:21:59.040Z,10.66
2023-04-22T02:24:44.190Z,10.52
2023-04-22T02:27:29.777Z,10.61
2023-04-22T02:30:15.047Z,10.62
2023-04-22T02:32:59.871Z,10.72
2023-04-22T02:35:45.467Z,10.74
2023-04-22T02:38:30.555Z,10.85
2023-04-22T02:41:15.361Z,10.82
2023-04-22T02:44:00.783Z,10.87
2023-04-22T02:46:46.057Z,10.76
2023-04-22T02:49:31.248Z,10.72
2023-04-22T02:52:16.190Z,10.68
2023-04-22T02:55:01.660Z,10.78
2023-04-22T02:57:46.643Z,10.75
2023-04-22T03:00:32.014Z,10.82
2023-04-22T03:03:17.528Z,10.88
2023-04-22T03:06:02.665Z,10.83
2023-04-22T03:08:48.133Z,10.84
2023-04-22T03:11:33.357Z,10.96
2023-04-22T03:14:18.635Z,11.12
2023-04-22T03:17:04.035Z,11.09
2023-04-22T03:19:49.420Z,11.03
2023-04-22T03:22:34.188Z,11.06
2023-04-22T03:25:19.782Z,10.97
2023-04-22T03:28:05.003Z,10.97
2023-04-22T03:30:50.490Z,10.99
2023-04-22T03:33:35.354Z,10.92
2023-04-22T03:36:20.326Z,10.84
2023-04-22T03:39:05.855Z,10.83
2023-04-22T03:41:51.056Z,10.80
2023-04-22T03:44:36.063Z,10.85
2023-04-22T03:47:21.376Z,10.95
2023-04-22T03:50:07.324Z,11.03
2023-04-22T03:52:52.815Z,11.04
2023-04-22T03:55:38.061Z,11.03
2023-04-22T03:58:23.313Z,10.89
2023-04-22T04:01:08.837Z,10.88
2023-04-22T04:03:54.416Z,10.83
2023-04-22T04:06:39.666Z,10.80
2023-04-22T04:09:24.655Z,10.94
2023-04-22T04:12:09.855Z,10.86
2023-04-22T04:14:55.086Z,10.89
2023-04-22T04:17:40.222Z,10.86
2023-04-22T04:20:25.543Z,10.92
2023-04-22T04:23:10.888Z,11.00
2023-04-22T04:25:56.321Z,10.98
2023-04-22T04:28:41.643Z,11.04
2023-04-22T04:31:28.466Z,11.05
2023-04-22T04:34:13.758Z,11.05
2023-04-22T04:36:59.249Z,11.04
2023-04-22T04:39:44.715Z,11.12
2023-04-22T04:42:30.013Z,11.17
2023-04-22T04:45:15.347Z,11.17
2023-04-22T04:48:00.646Z,11.16
2023-04-22T04:50:46.291Z,11.13
2023-04-22T04:53:32.446Z,11.19
2023-04-22T04:56:17.760Z,11.16
2023-04-22T04:59:03.162Z,11.19
2023-04-22T05:01:48.567Z,11.09
2023-04-22T05:04:33.820Z,11.00
2023-04-22T05:07:19.242Z,11.04
2023-04-22T05:10:04.883Z,11.06
2023-04-22T05:12:50.378Z,11.16
2023-04-22T05:15:35.768Z,11.20
2023-04-22T05:18:21.752Z,11.22
2023-04-22T05:21:07.186Z,11.37
2023-04-22T05:23:52.302Z,11.33
2023-04-22T05:26:37.806Z,11.36
2023-04-22T05:29:22.913Z,11.40
2023-04-22T05:32:08.562Z,11.59
2023-04-22T05:34:53.799Z,11.59
2023-04-22T05:37:39.223Z,11.74
2023-04-22T05:40:24.462Z,11.88
2023-04-22T05:43:09.747Z,11.82
2023-04-22T05:45:54.722Z,11.98
2023-04-22T05:48:40.048Z,12.00
2023-04-22T05:51:25.439Z,12.11
2023-04-22T05:54:10.792Z,12.14
2023-04-22T05:56:56.467Z,12.07
2023-04-22T05:59:42.260Z,12.21
2023-04-22T06:02:27.898Z,12.26
2023-04-22T06:05:13.296Z,12.26
2023-04-22T06:07:58.491Z,12.39
2023-04-22T06:10:43.765Z,12.50
2023-04-22T06:13:29.189Z,12.49
2023-04-22T06:16:14.681Z,12.63
2023-04-22T06:19:00.106Z,12.81
2023-04-22T06:21:45.354Z,12.89
2023-04-22T06:24:30.842Z,13.06
2023-04-22T06:27:16.156Z,13.18
2023-04-22T06:30:01.598Z,13.16
2023-04-22T06:32:47.243Z,13.37
2023-04-22T06:35:32.549Z,13.51
2023-04-22T06:38:17.794Z,13.50
2023-04-22T06:41:03.078Z,13.49
2023-04-22T06:43:48.434Z,13.55
2023-04-22T06:46:33.915Z,13.60
2023-04-22T06:49:19.323Z,13.69
2023-04-22T06:52:05.695Z,13.67
2023-04-22T06:54:51.056Z,13.68
2023-04-22T06:57:36.457Z,13.83
2023-04-22T07:00:21.724Z,13.86
2023-04-22T07:03:07.025Z,13.92
2023-04-22T07:05:52.327Z,13.93
2023-04-22T07:08:37.545Z,13.98
2023-04-22T07:11:23.049Z,13.96
2023-04-22T07:14:08.205Z,14.02
2023-04-22T07:16:53.937Z,14.06
2023-04-22T07:19:39.574Z,14.19
2023-04-22T07:22:24.811Z,14.27
2023-04-22T07:25:10.164Z,14.41
2023-04-22T07:27:55.269Z,14.32
2023-04-22T07:30:40.652Z,14.45
2023-04-22T07:33:25.987Z,14.53
2023-04-22T07:36:11.409Z,14.56
2023-04-22T07:38:56.415Z,14.74
2023-04-22T07:41:41.698Z,14.97
2023-04-22T07:44:27.120Z,15.21
2023-04-22T07:47:12.711Z,15.33
2023-04-22T07:49:57.895Z,15.50
2023-04-22T07:52:43.375Z,15.75
2023-04-22T07:55:28.750Z,15.95
2023-04-22T07:58:14.224Z,15.85
2023-04-22T08:00:59.664Z,15.94
2023-04-22T08:03:45.248Z,16.13
2023-04-22T08:06:30.632Z,16.14
2023-04-22T08:09:16.047Z,16.58
2023-04-22T08:12:01.557Z,16.78
2023-04-22T08:14:46.540Z,16.94
2023-04-22T08:17:32.208Z,16.87
2023-04-22T08:20:21.769Z,16.91
2023-04-22T08:23:07.082Z,17.19
2023-04-22T08:25:52.473Z,17.27
2023-04-22T08:28:38.210Z,17.07
2023-04-22T08:31:23.436Z,17.58
2023-04-22T08:34:13.487Z,18.01
2023-04-22T08:36:58.992Z,18.68
2023-04-22T08:39:44.104Z,19.03
2023-04-22T08:42:29.623Z,18.94
2023-04-22T08:45:15.521Z,19.40
2023-04-22T08:48:02.479Z,19.41
2023-04-22T08:50:48.422Z,19.44
2023-04-22T08:53:34.070Z,19.82
2023-04-22T08:56:20.548Z,20.08
2023-04-22T08:59:05.733Z,19.18
2023-04-22T09:01:53.090Z,18.87
2023-04-22T09:04:38.420Z,19.22
2023-04-22T09:07:26.784Z,19.83
2023-04-22T09:10:11.861Z,18.92
2023-04-22T09:12:58.878Z,19.75
2023-04-22T09:15:44.215Z,20.16
2023-04-22T09:18:29.658Z,20.82
2023-04-22T09:21:15.034Z,19.72
2023-04-22T09:24:00.524Z,19.70
2023-04-22T09:26:46.257Z,20.33
2023-04-22T09:29:31.610Z,20.21
2023-04-22T09:32:17.612Z,20.17
2023-04-22T09:35:02.744Z,19.55
2023-04-22T09:37:51.788Z,19.89
2023-04-22T09:40:40.972Z,19.63
2023-04-22T09:43:26.342Z,19.73
2023-04-22T09:46:11.660Z,20.03
2023-04-22T09:48:58.819Z,19.89
2023-04-22T09:51:44.078Z,20.01
2023-04-22T09:54:29.256Z,19.99
2023-04-22T09:57:14.659Z,20.10
2023-04-22T09:59:59.991Z,20.62
2023-04-22T10:02:45.552Z,20.27
2023-04-22T10:05:31.293Z,20.27
2023-04-22T10:08:17.025Z,20.54
2023-04-22T10:11:02.027Z,20.67
2023-04-22T10:13:47.311Z,20.91
2023-04-22T10:16:34.714Z,20.73
2023-04-22T10:19:21.962Z,20.54
2023-04-22T10:22:10.843Z,20.87
2023-04-22T10:24:56.074Z,20.57
2023-04-22T10:27:41.882Z,20.68
2023-04-22T10:30:29.224Z,20.47
2023-04-22T10:33:20.786Z,20.87
2023-04-22T10:36:12.275Z,20.93
2023-04-22T10:38:57.602Z,20.84
2023-04-22T10:42:08.614Z,21.04
2023-04-22T10:45:00.871Z,21.25
2023-04-22T10:47:46.087Z,21.20
2023-04-22T10:50:32.084Z,21.20
2023-04-22T10:53:36.776Z,21.15
2023-04-22T10:56:21.769Z,21.56
2023-04-22T10:59:16.763Z,21.32
2023-04-22T11:02:03.375Z,21.64
2023-04-22T11:04:49.113Z,21.89
2023-04-22T11:07:34.360Z,21.56
2023-04-22T11:10:32.036Z,21.59
2023-04-22T11:13:21.752Z,21.65
2023-04-22T11:16:08.775Z,21.49
2023-04-22T11:19:11.468Z,21.63
2023-04-22T11:21:56.947Z,21.72
2023-04-22T11:24:54.303Z,21.71
2023-04-22T11:27:41.245Z,21.64
2023-04-22T11:30:28.488Z,21.81
2023-04-22T11:33:15.157Z,21.63
2023-04-22T11:36:00.729Z,22.09
2023-04-22T11:39:08.646Z,21.72
2023-04-22T11:41:53.850Z,21.64
2023-04-22T11:44:39.693Z,21.43
2023-04-22T11:47:25.015Z,21.91
2023-04-22T11:50:11.837Z,22.38
2023-04-22T11:53:15.633Z,22.19
2023-04-22T11:56:02.788Z,22.62
2023-04-22T11:58:47.988Z,22.96
2023-04-22T12:01:33.305Z,23.31
2023-04-22T12:04:21.749Z,23.42
2023-04-22T12:07:07.463Z,23.09
2023-04-22T12:09:56.403Z,23.43
2023-04-22T12:12:41.893Z,23.54
2023-04-22T12:15:27.096Z,23.10
2023-04-22T12:18:12.028Z,23.26
2023-04-22T12:21:06.782Z,23.60
2023-04-22T12:23:54.759Z,24.32
2023-04-22T12:26:39.895Z,23.58
2023-04-22T12:29:33.335Z,23.58
2023-04-22T12:32:20.382Z,23.31
2023-04-22T12:35:05.604Z,23.33
2023-04-22T12:37:52.341Z,22.97
2023-04-22T12:40:37.580Z,22.56
2023-04-22T12:43:22.898Z,22.38
2023-04-22T12:46:09.078Z,22.23
2023-04-22T12:48:54.676Z,21.92
2023-04-22T12:51:40.200Z,21.71
2023-04-22T12:54:25.478Z,21.86
2023-04-22T12:57:10.493Z,21.89
2023-04-22T12:59:55.865Z,21.83
2023-04-22T13:02:42.690Z,22.52
2023-04-22T13:05:28.238Z,22.91
2023-04-22T13:08:13.443Z,22.72
2023-04-22T13:10:58.792Z,23.02
2023-04-22T13:13:44.200Z,22.92
2023-04-22T13:16:29.764Z,22.69
2023-04-22T13:19:14.828Z,22.50
2023-04-22T13:21:59.911Z,22.17
2023-04-22T13:24:45.565Z,22.06
2023-04-22T13:27:30.635Z,21.95
2023-04-22T13:30:16.043Z,21.86
2023-04-22T13:33:01.493Z,21.83
2023-04-22T13:35:46.871Z,21.85
2023-04-22T13:38:32.303Z,21.91
2023-04-22T13:41:17.228Z,21.91
2023-04-22T13:44:02.846Z,22.93
2023-04-22T13:46:48.229Z,23.37
2023-04-22T13:49:33.697Z,24.04
2023-04-22T13:52:19.078Z,23.56
2023-04-22T13:55:04.746Z,23.05
2023-04-22T13:57:51.266Z,22.82
2023-04-22T14:00:36.291Z,22.52
2023-04-22T14:03:22.019Z,22.23
2023-04-22T14:06:07.656Z,22.20
2023-04-22T14:08:52.748Z,22.58
2023-04-22T14:11:37.734Z,22.85
2023-04-22T14:14:23.052Z,22.46
2023-04-22T14:17:08.256Z,22.80
2023-04-22T14:19:53.503Z,22.79
2023-04-22T14:22:38.919Z,23.10
2023-04-22T14:25:24.562Z,22.42
2023-04-22T14:28:10.552Z,22.03
2023-04-22T14:30:55.725Z,21.91
2023-04-22T14:33:40.815Z,21.98
2023-04-22T14:36:25.955Z,21.96
2023-04-22T14:39:10.957Z,21.93
2023-04-22T14:41:56.352Z,21.94
2023-04-22T14:44:42.704Z,21.97
2023-04-22T14:47:28.156Z,21.99
2023-04-22T14:50:13.503Z,21.92
2023-04-22T14:52:58.804Z,22.02
2023-04-22T14:55:43.781Z,22.11
2023-04-22T14:58:29.253Z,22.36
2023-04-22T15:01:14.677Z,22.15
2023-04-22T15:04:00.317Z,21.94
2023-04-22T15:06:45.537Z,21.90
2023-04-22T15:09:31.042Z,21.83
2023-04-22T15:12:17.030Z,21.78
2023-04-22T15:15:02.333Z,21.67
2023-04-22T15:17:47.547Z,21.65
2023-04-22T15:20:32.464Z,21.59
2023-04-22T15:23:17.838Z,21.55
2023-04-22T15:26:02.998Z,21.48
2023-04-22T15:28:48.477Z,21.42
2023-04-22T15:31:33.594Z,21.47
2023-04-22T15:34:18.847Z,21.47
2023-04-22T15:37:04.309Z,21.43
2023-04-22T15:39:49.587Z,21.34
2023-04-22T15:42:34.908Z,21.38
2023-04-22T15:45:20.317Z,21.32
2023-04-22T15:48:05.825Z,21.23
2023-04-22T15:50:51.026Z,21.15
2023-04-22T15:53:36.989Z,21.00
2023-04-22T15:56:22.005Z,20.92
2023-04-22T15:59:06.908Z,20.87
2023-04-22T16:01:52.247Z,20.82
2023-04-22T16:04:37.687Z,20.70
2023-04-22T16:07:22.959Z,20.40
2023-04-22T16:10:09.022Z,20.27
2023-04-22T16:12:53.944Z,20.11
2023-04-22T16:15:38.922Z,20.08
2023-04-22T16:18:24.983Z,20.06
2023-04-22T16:21:10.062Z,19.65
2023-04-22T16:23:55.345Z,19.31
2023-04-22T16:26:40.180Z,19.10
2023-04-22T16:29:25.699Z,18.98
2023-04-22T16:32:11.581Z,18.92
2023-04-22T16:34:57.133Z,18.75
2023-04-22T16:37:43.171Z,18.61
2023-04-22T16:40:28.542Z,18.49
2023-04-22T16:43:13.627Z,18.53
2023-04-22T16:45:59.228Z,18.35
2023-04-22T16:48:44.271Z,18.18
2023-04-22T16:51:29.607Z,18.16
2023-04-22T16:54:14.918Z,18.02
2023-04-22T16:56:59.768Z,17.66
2023-04-22T16:59:45.103Z,17.45
2023-04-22T17:02:30.684Z,17.37
2023-04-22T17:05:15.965Z,17.35
2023-04-22T17:08:01.255Z,17.32
2023-04-22T17:10:47.095Z,17.16
2023-04-22T17:13:32.306Z,17.18
2023-04-22T17:16:18.118Z,17.05
2023-04-22T17:19:03.373Z,17.07
2023-04-22T17:21:48.294Z,16.95
2023-04-22T17:24:33.783Z,16.92
2023-04-22T17:27:19.094Z,16.97
2023-04-22T17:30:04.493Z,17.02
2023-04-22T17:32:49.836Z,16.92
2023-04-22T17:35:35.042Z,16.69
2023-04-22T17:38:20.254Z,16.57
2023-04-22T17:41:05.654Z,16.70
2023-04-22T17:43:51.391Z,16.59
2023-04-22T17:46:36.568Z,16.44
2023-04-22T17:49:21.870Z,16.37
2023-04-22T17:52:07.194Z,16.44
2023-04-22T17:54:52.747Z,16.43
2023-04-22T17:57:38.115Z,16.51
2023-04-22T18:00:36.652Z,16.38
2023-04-22T18:03:22.807Z,16.35
2023-04-22T18:06:08.361Z,16.36
2023-04-22T18:08:55.922Z,16.39
2023-04-22T18:11:41.720Z,16.50
2023-04-22T18:14:26.785Z,16.57
2023-04-22T18:17:11.953Z,16.52
2023-04-22T18:20:09.881Z,16.55
2023-04-22T18:22:59.676Z,16.56
2023-04-22T18:25:45.100Z,16.38
2023-04-22T18:28:30.627Z,16.29
2023-04-22T18:31:16.032Z,16.29
2023-04-22T18:34:01.414Z,16.30
2023-04-22T18:36:46.829Z,16.39
2023-04-22T18:39:32.386Z,16.36
2023-04-22T18:42:18.281Z,16.32
2023-04-22T18:45:04.755Z,16.40
2023-04-22T18:47:50.229Z,16.30
2023-04-22T18:50:35.501Z,16.23
2023-04-22T18:53:21.047Z,16.34
2023-04-22T18:56:06.418Z,16.25
2023-04-22T18:58:51.789Z,16.21
2023-04-22T19:01:37.276Z,16.26
2023-04-22T19:04:22.812Z,16.19
2023-04-22T19:07:13.506Z,15.98
2023-04-22T19:10:02.108Z,15.81
2023-04-22T19:12:47.629Z,15.82
2023-04-22T19:15:32.896Z,15.79
2023-04-22T19:18:18.300Z,15.84
2023-04-22T19:21:03.920Z,15.74
2023-04-22T19:23:49.682Z,15.73
2023-04-22T19:26:35.279Z,15.65
2023-04-22T19:29:20.469Z,15.43
2023-04-22T19:32:05.870Z,15.33
2023-04-22T19:34:50.862Z,15.26
2023-04-22T19:37:36.197Z,15.17
2023-04-22T19:40:21.653Z,14.92
2023-04-22T19:43:07.882Z,14.90
2023-04-22T19:45:52.953Z,14.68
2023-04-22T19:48:38.769Z,14.58
2023-04-22T19:51:24.468Z,14.56
2023-04-22T19:54:11.233Z,14.47
2023-04-22T19:56:56.747Z,14.39
2023-04-22T19:59:43.365Z,14.30
2023-04-22T20:02:28.938Z,14.27
2023-04-22T20:05:14.832Z,14.19
2023-04-22T20:08:00.545Z,14.23
2023-04-22T20:10:47.865Z,14.19
2023-04-22T20:14:16.254Z,14.14
2023-04-22T20:17:16.781Z,14.12
2023-04-22T20:20:13.929Z,14.19
2023-04-22T20:23:01.767Z,14.20
2023-04-22T20:25:47.175Z,14.09
2023-04-22T20:28:44.715Z,13.95
2023-04-22T20:31:30.327Z,13.95
2023-04-22T20:34:15.503Z,13.88
2023-04-22T20:37:01.587Z,13.83
2023-04-22T20:43:32.189Z,13.73
2023-04-22T20:46:17.670Z,13.71
2023-04-22T20:49:03.161Z,13.74
2023-04-22T20:51:48.589Z,13.71
2023-04-22T20:54:35.313Z,13.81
2023-04-22T20:57:21.223Z,13.69
2023-04-22T21:00:07.326Z,13.58
2023-04-22T21:02:53.103Z,13.64
2023-04-22T21:05:38.668Z,13.66
2023-04-22T21:08:25.201Z,13.69
2023-04-22T21:11:10.772Z,13.79
2023-04-22T21:13:55.939Z,13.80
2023-04-22T21:16:43.188Z,13.72
2023-04-22T21:19:35.163Z,13.62
2023-04-22T21:22:21.542Z,13.71
2023-04-22T21:25:07.495Z,13.60
2023-04-22T21:27:53.310Z,13.69
2023-04-22T21:30:39.076Z,13.74
2023-04-22T21:33:24.106Z,13.77
2023-04-22T21:36:09.571Z,13.89
2023-04-22T21:38:54.914Z,13.98
2023-04-22T21:41:40.713Z,13.89
2023-04-22T21:44:26.191Z,13.86
2023-04-22T21:47:11.654Z,13.94
2023-04-22T21:49:57.216Z,13.92
2023-04-22T21:52:42.686Z,13.86
2023-04-22T21:55:27.925Z,13.83
2023-04-22T21:58:13.102Z,13.85
2023-04-22T22:00:58.141Z,13.86
2023-04-22T22:03:43.722Z,13.82
2023-04-22T22:06:30.737Z,13.81
2023-04-22T22:09:16.348Z,13.81
2023-04-22T22:12:01.356Z,13.76
2023-04-22T22:14:46.886Z,13.74
2023-04-22T22:17:32.372Z,13.75
2023-04-22T22:20:17.600Z,13.67
2023-04-22T22:23:03.052Z,13.58
2023-04-22T22:25:49.291Z,13.63
2023-04-22T22:28:34.648Z,13.55
2023-04-22T22:31:20.016Z,13.39
2023-04-22T22:34:05.337Z,13.06
2023-04-22T22:36:50.695Z,12.81
2023-04-22T22:39:36.655Z,12.71
2023-04-22T22:42:22.244Z,12.84
2023-04-22T22:45:08.235Z,12.91
2023-04-22T22:47:53.541Z,12.89
2023-04-22T22:50:38.836Z,12.92
2023-04-22T22:53:24.190Z,12.82
2023-04-22T22:56:09.768Z,12.92
2023-04-22T22:58:55.083Z,12.69
2023-04-22T23:01:40.484Z,12.65
2023-04-22T23:04:27.526Z,12.66
2023-04-22T23:07:13.156Z,12.57
2023-04-22T23:09:58.697Z,12.38
2023-04-22T23:12:44.031Z,12.42
2023-04-22T23:15:29.483Z,12.47
2023-04-22T23:18:16.705Z,12.28
2023-04-22T23:21:02.514Z,12.24
2023-04-22T23:23:49.303Z,12.15
2023-04-22T23:26:34.906Z,12.31
2023-04-22T23:29:20.517Z,12.20
2023-04-22T23:32:07.540Z,12.31
2023-04-22T23:34:53.685Z,12.26
2023-04-22T23:37:42.956Z,12.34
2023-04-22T23:40:27.993Z,12.32
2023-04-22T23:43:13.631Z,12.05
2023-04-22T23:45:58.735Z,12.23
2023-04-22T23:48:43.850Z,12.17
2023-04-22T23:51:28.884Z,12.05
2023-04-22T23:54:14.203Z,12.08
2023-04-22T23:57:00.022Z,12.23
2023-04-22T23:59:45.526Z,12.23
